John G — WDF2677 — position and weather

sailwx.info

Track history (hours):
 
Tides and Currents Weather Stations Pressure Air Temp Water Temp Dewpoint Dewpoint Depression Visibility Wind Speed Wind Dir Waves Ship Positions

John G

Owner: Marquette Transportation Company Offshore LLC, Jefferson, LA. More information available from US FCC via Universal Licensing System and Coast Guard Vessel Documentation Center.

Last reported at 2015-Jan-19 09:04 UTC. Time now 2015-Jan-27 05:46 UTC.
Position N 30°02' W 090°37'.

Length 30 m; draft 3.3 m.

Type: Towing. MMSI: 367009680.

Date/timePositionNaut miles runAvg speedWind from/ knotsBaromVisibWave heightAir tempDewpointWater temp
2015-Jan-19 09:04N 30°02' W 090°37'1 0.0
2015-Jan-17 08:09N 30°03' W 090°35'1 0.0
2015-Jan-16 14:28N 30°02' W 090°36'0 0.0
2015-Jan-16 13:29N 30°02' W 090°36'0 0.0
2015-Jan-16 12:28N 30°02' W 090°36'0 0.0
2015-Jan-16 11:26N 30°02' W 090°36'7 2.9
2015-Jan-16 09:09N 30°02' W 090°29'3 3.1
2015-Jan-16 08:09N 29°60' W 090°27'16 2.7
2015-Jan-16 02:12N 29°55' W 090°08'2 2.3
2015-Jan-16 01:18N 29°54' W 090°06'0 0.1
2015-Jan-16 00:30N 29°54' W 090°06'0 0.0
2015-Jan-15 23:30N 29°54' W 090°06'0 0.0
2015-Jan-15 22:33N 29°54' W 090°06'0 0.0
2015-Jan-15 21:33N 29°54' W 090°06'0 0.0
2015-Jan-15 20:32N 29°54' W 090°06'0 0.0
2015-Jan-15 19:33N 29°54' W 090°06'0 0.0
2015-Jan-15 18:33N 29°54' W 090°06'0 0.0
2015-Jan-15 17:33N 29°54' W 090°06'0 0.0
2015-Jan-15 16:33N 29°54' W 090°06'0 0.0
2015-Jan-15 15:33N 29°54' W 090°06'0 0.0
2015-Jan-15 14:26N 29°54' W 090°06'0 0.0
2015-Jan-15 04:16N 29°54' W 090°06'11 1.6
2015-Jan-14 21:25N 29°56' W 090°19'16 1.3
2015-Jan-14 09:23N 30°02' W 090°36'0 0.0
2015-Jan-14 07:22N 30°02' W 090°36'0 0.0
2015-Jan-13 13:33N 30°02' W 090°36'0 0.0
2015-Jan-13 12:09N 30°02' W 090°36'  
2015-Jan-11 05:33N 30°02' W 090°36'1 0.0
2015-Jan-09 10:30N 30°02' W 090°37'0 0.0
2015-Jan-09 09:09N 30°02' W 090°37'  
Track history (hours):
 
Tides and Currents Weather Stations Pressure Air Temp Water Temp Dewpoint Dewpoint Depression Visibility Wind Speed Wind Dir Waves Ship Positions

John G

Owner: Marquette Transportation Company Offshore LLC, Jefferson, LA. More information available from US FCC via Universal Licensing System and Coast Guard Vessel Documentation Center.

Last reported at 2015-Jan-19 09:04 UTC. Time now 2015-Jan-27 05:46 UTC.
Position N 30°02' W 090°37'.

Length 30 m; draft 3.3 m.

Type: Towing. MMSI: 367009680.

Date/timePositionNaut miles runAvg speedWind from/ knotsBaromVisibWave heightAir tempDewpointWater temp
2015-Jan-19 09:04N 30°02' W 090°37'1 0.0
2015-Jan-17 08:09N 30°03' W 090°35'1 0.0
2015-Jan-16 14:28N 30°02' W 090°36'0 0.0
2015-Jan-16 13:29N 30°02' W 090°36'0 0.0
2015-Jan-16 12:28N 30°02' W 090°36'0 0.0
2015-Jan-16 11:26N 30°02' W 090°36'7 2.9
2015-Jan-16 09:09N 30°02' W 090°29'3 3.1
2015-Jan-16 08:09N 29°60' W 090°27'16 2.7
2015-Jan-16 02:12N 29°55' W 090°08'2 2.3
2015-Jan-16 01:18N 29°54' W 090°06'0 0.1
2015-Jan-16 00:30N 29°54' W 090°06'0 0.0
2015-Jan-15 23:30N 29°54' W 090°06'0 0.0
2015-Jan-15 22:33N 29°54' W 090°06'0 0.0
2015-Jan-15 21:33N 29°54' W 090°06'0 0.0
2015-Jan-15 20:32N 29°54' W 090°06'0 0.0
2015-Jan-15 19:33N 29°54' W 090°06'0 0.0
2015-Jan-15 18:33N 29°54' W 090°06'0 0.0
2015-Jan-15 17:33N 29°54' W 090°06'0 0.0
2015-Jan-15 16:33N 29°54' W 090°06'0 0.0
2015-Jan-15 15:33N 29°54' W 090°06'0 0.0
2015-Jan-15 14:26N 29°54' W 090°06'0 0.0
2015-Jan-15 04:16N 29°54' W 090°06'11 1.6
2015-Jan-14 21:25N 29°56' W 090°19'16 1.3
2015-Jan-14 09:23N 30°02' W 090°36'0 0.0
2015-Jan-14 07:22N 30°02' W 090°36'0 0.0
2015-Jan-13 13:33N 30°02' W 090°36'0 0.0
2015-Jan-13 12:09N 30°02' W 090°36'  
2015-Jan-11 05:33N 30°02' W 090°36'1 0.0
2015-Jan-09 10:30N 30°02' W 090°37'0 0.0
2015-Jan-09 09:09N 30°02' W 090°37'  

Dump ship's entire track history